Etusivu
METAR-TAF:

METAR-TAF

Lentoasemat :

Bardufoss, Norja

Leveyspiiri: 69-04N, Pituuspiiri: 018-32E, korkeus merenpinnasta: 7 m

Tämänhetkinen sää

Tämä raportti tehtiin 30 minuuttia sitten, kello 11.50 UTC
Tuuli 8 kn idästä
Lämpötila -2°C
Kosteus 63%
Ilmanpaine 1001 hPa
Näkyvyys 10 km tai enemmän
Muutamia pilviä 3500 ft:n korkeudessa
Hajanaisia pilviä 9000 ft:n korkeudessa

METAR: ENDU 131150Z 10008KT 9999 FEW035 SCT090 M02/M08 Q1001 NOSIG RMK WIND 1100FT 09008KT WIND 2200FT 12017KT

Aika: 13:20 (12:20 UTC)

Sääennuste

Ennuste voimassa 13. päivästä klo 12 UTC - 14. päivään klo 12 UTC
Tuuli 9 kn idästä
Näkyvyys 10 km tai enemmän
Muutamia pilviä 3500 ft:n korkeudessa
Hajanaisia pilviä 8000 ft:n korkeudessa
Ajoittain
13. päivästä klo 12 UTC - 13. päivään klo 14 UTC
Tuuli 15 kn idästä puuskistuen 25 kn:hen

TAF: ENDU 1312/1412 09009KT 9999 FEW035 SCT080 TEMPO 1312/1314 09015G25KT

Säähavainnot ja -ennusteet yli 4000 lentoasemalta (METAR- ja TAF-raportit).

Käytössä olevat sääasemat on merkitty karttaan keltaisilla ja punaisilla pisteillä.

Aseta hiiri pisteen päälle nähdäksesi sääaseman nimen.

Klikkaa sitten nähdäksesi säähavainnot ja -ennusteet.

Kartan vaihtaminen: klikkaa mustalla rastilla varustettuja vihreitä pisteitä, niin voit zoomata sisään; viivalla varustettua vihreää pistettä, niin voit zoomata ulos tai vihreitä nuolia, niin pääset viereisille kartoille.


METAR-TAF: